createdAt,value
2022-08-22T00:01:37.887Z,16.10
2022-08-22T00:02:47.239Z,17.60
2022-08-22T00:03:03.074Z,20.80
2022-08-22T00:04:10.991Z,15.90
2022-08-22T00:07:06.578Z,15.90
2022-08-22T00:09:54.036Z,15.80
2022-08-22T00:12:36.300Z,15.60
2022-08-22T00:15:42.886Z,15.60
2022-08-22T00:18:18.026Z,15.70
2022-08-22T00:20:56.955Z,15.60
2022-08-22T00:24:01.598Z,15.50
2022-08-22T00:26:43.401Z,15.50
2022-08-22T00:29:20.338Z,15.30
2022-08-22T00:32:11.401Z,15.10
2022-08-22T00:35:10.082Z,15.20
2022-08-22T00:38:09.114Z,15.20
2022-08-22T00:41:03.780Z,15.30
2022-08-22T00:43:53.424Z,15.20
2022-08-22T00:46:45.390Z,15.10
2022-08-22T00:49:49.873Z,15.20
2022-08-22T00:52:30.507Z,15.30
2022-08-22T00:55:34.978Z,15.40
2022-08-22T00:58:07.613Z,15.40
2022-08-22T01:00:43.617Z,15.50
2022-08-22T01:03:28.712Z,15.40
2022-08-22T01:06:10.470Z,15.40
2022-08-22T01:08:55.858Z,15.40
2022-08-22T01:11:48.815Z,15.50
2022-08-22T01:14:18.549Z,15.50
2022-08-22T01:17:26.120Z,15.50
2022-08-22T01:20:29.406Z,15.50
2022-08-22T01:23:33.304Z,15.50
2022-08-22T01:26:21.829Z,15.60
2022-08-22T01:29:27.755Z,15.60
2022-08-22T01:32:32.385Z,15.70
2022-08-22T01:35:30.595Z,15.80
2022-08-22T01:38:06.173Z,15.80
2022-08-22T01:40:54.022Z,15.80
2022-08-22T01:44:03.225Z,15.70
2022-08-22T01:46:51.696Z,15.40
2022-08-22T01:49:33.888Z,15.10
2022-08-22T01:52:14.486Z,14.90
2022-08-22T01:54:51.836Z,14.60
2022-08-22T01:57:19.374Z,14.60
2022-08-22T01:59:59.107Z,14.70
2022-08-22T02:02:47.921Z,14.70
2022-08-22T02:05:37.075Z,14.70
2022-08-22T02:08:45.742Z,14.80
2022-08-22T02:11:37.442Z,14.80
2022-08-22T02:14:18.654Z,14.50
2022-08-22T02:16:52.563Z,14.40
2022-08-22T02:19:49.645Z,14.50
2022-08-22T02:22:29.371Z,14.30
2022-08-22T02:25:10.450Z,14.20
2022-08-22T02:27:57.706Z,14.20
2022-08-22T02:30:50.550Z,14.10
2022-08-22T02:33:32.579Z,14.10
2022-08-22T02:36:09.902Z,14.20
2022-08-22T02:38:47.672Z,14.00
2022-08-22T02:41:44.253Z,14.00
2022-08-22T02:44:22.592Z,13.90
2022-08-22T02:47:05.178Z,13.90
2022-08-22T02:49:43.668Z,13.80
2022-08-22T02:52:49.254Z,13.80
2022-08-22T02:55:29.446Z,13.80
2022-08-22T02:58:24.174Z,13.90
2022-08-22T03:01:22.405Z,13.80
2022-08-22T03:03:50.181Z,13.80
2022-08-22T03:06:40.017Z,13.70
2022-08-22T03:09:30.909Z,13.60
2022-08-22T03:12:32.117Z,13.70
2022-08-22T03:15:24.459Z,13.50
2022-08-22T03:17:53.962Z,13.50
2022-08-22T03:20:59.134Z,13.40
2022-08-22T03:23:38.684Z,13.30
2022-08-22T03:26:17.554Z,13.30
2022-08-22T03:29:00.152Z,13.20
2022-08-22T03:31:28.625Z,13.10
2022-08-22T03:34:16.447Z,13.00
2022-08-22T03:37:08.256Z,13.10
2022-08-22T03:40:01.071Z,13.10
2022-08-22T03:43:00.081Z,13.10
2022-08-22T03:45:59.125Z,13.10
2022-08-22T03:48:54.979Z,12.90
2022-08-22T03:51:46.840Z,12.90
2022-08-22T03:55:00.871Z,12.80
2022-08-22T03:57:46.102Z,12.70
2022-08-22T04:00:46.019Z,12.60
2022-08-22T04:03:41.630Z,12.60
2022-08-22T04:06:44.111Z,12.60
2022-08-22T04:09:30.029Z,12.50
2022-08-22T04:12:33.450Z,12.40
2022-08-22T04:15:28.080Z,12.20
2022-08-22T04:18:24.038Z,12.30
2022-08-22T04:20:56.662Z,12.20
2022-08-22T04:24:01.055Z,12.30
2022-08-22T04:26:52.430Z,12.30
2022-08-22T04:29:28.229Z,12.30
2022-08-22T04:32:06.899Z,12.30
2022-08-22T04:34:39.837Z,12.30
2022-08-22T04:37:41.747Z,12.20
2022-08-22T04:40:16.852Z,12.10
2022-08-22T04:42:51.049Z,12.10
2022-08-22T04:45:39.526Z,12.10
2022-08-22T04:48:14.494Z,12.20
2022-08-22T04:50:51.306Z,12.20
2022-08-22T04:53:32.553Z,12.20
2022-08-22T04:56:07.667Z,12.20
2022-08-22T04:58:48.911Z,12.30
2022-08-22T05:01:41.626Z,12.40
2022-08-22T05:04:19.775Z,12.40
2022-08-22T05:06:57.711Z,12.40
2022-08-22T05:09:28.726Z,12.40
2022-08-22T05:12:01.747Z,12.40
2022-08-22T05:14:40.549Z,12.30
2022-08-22T05:17:10.709Z,12.30
2022-08-22T05:19:44.215Z,12.40
2022-08-22T05:22:18.705Z,12.40
2022-08-22T05:24:49.567Z,12.50
2022-08-22T05:27:28.579Z,12.60
2022-08-22T05:30:09.548Z,12.40
2022-08-22T05:32:47.797Z,12.40
2022-08-22T05:35:20.543Z,12.40
2022-08-22T05:37:53.255Z,12.50
2022-08-22T05:40:24.644Z,12.70
2022-08-22T05:42:53.116Z,12.50
2022-08-22T05:45:24.398Z,12.40
2022-08-22T05:47:57.596Z,12.40
2022-08-22T05:50:35.681Z,12.50
2022-08-22T05:53:35.325Z,12.70
2022-08-22T05:56:04.745Z,13.00
2022-08-22T05:58:44.600Z,13.30
2022-08-22T06:01:29.802Z,13.80
2022-08-22T06:04:16.021Z,14.10
2022-08-22T06:07:18.641Z,15.10
2022-08-22T06:09:48.047Z,15.90
2022-08-22T06:12:24.454Z,16.60
2022-08-22T06:15:11.603Z,17.00
2022-08-22T06:17:47.122Z,17.00
2022-08-22T06:20:23.273Z,17.30
2022-08-22T06:22:54.014Z,17.20
2022-08-22T06:25:29.105Z,17.60
2022-08-22T06:27:58.607Z,17.80
2022-08-22T06:30:28.291Z,17.80
2022-08-22T06:33:01.299Z,18.00
2022-08-22T06:35:55.422Z,18.40
2022-08-22T06:38:29.335Z,18.80
2022-08-22T06:40:58.778Z,20.50
2022-08-22T06:43:25.914Z,21.10
2022-08-22T06:45:53.374Z,21.50
2022-08-22T06:48:23.746Z,21.40
2022-08-22T06:50:56.978Z,20.70
2022-08-22T06:53:48.185Z,20.10
2022-08-22T06:56:25.546Z,19.80
2022-08-22T06:59:00.878Z,19.40
2022-08-22T07:01:33.374Z,19.80
2022-08-22T07:04:09.177Z,19.60
2022-08-22T07:06:50.042Z,19.40
2022-08-22T07:09:24.120Z,19.50
2022-08-22T07:11:52.404Z,19.60
2022-08-22T07:14:31.785Z,19.80
2022-08-22T07:17:02.023Z,20.00
2022-08-22T07:19:32.560Z,20.20
2022-08-22T07:22:10.957Z,20.50
2022-08-22T07:24:44.538Z,20.80
2022-08-22T07:27:17.279Z,21.20
2022-08-22T07:30:09.995Z,21.40
2022-08-22T07:32:57.757Z,21.70
2022-08-22T07:35:53.190Z,21.50
2022-08-22T07:38:42.488Z,21.00
2022-08-22T07:41:23.602Z,21.90
2022-08-22T07:43:54.959Z,23.00
2022-08-22T07:46:40.942Z,23.30
2022-08-22T07:49:21.279Z,24.50
2022-08-22T07:52:01.281Z,26.20
2022-08-22T07:54:46.894Z,27.30
2022-08-22T07:57:26.698Z,26.90
2022-08-22T07:59:57.954Z,27.20
2022-08-22T08:02:25.777Z,27.40
2022-08-22T08:04:55.829Z,27.80
2022-08-22T08:07:26.647Z,28.30
2022-08-22T08:09:59.500Z,28.70
2022-08-22T08:12:38.323Z,29.30
2022-08-22T08:15:09.564Z,30.90
2022-08-22T08:17:38.662Z,30.90
2022-08-22T08:20:12.306Z,31.10
2022-08-22T08:22:42.896Z,31.20
2022-08-22T08:25:15.530Z,31.30
2022-08-22T08:28:01.045Z,31.40
2022-08-22T08:30:45.415Z,31.30
2022-08-22T08:33:26.080Z,30.80
2022-08-22T08:36:03.881Z,30.00
2022-08-22T08:38:57.917Z,29.40
2022-08-22T08:41:46.516Z,29.30
2022-08-22T08:44:30.380Z,29.60
2022-08-22T08:47:27.922Z,29.90
2022-08-22T08:49:57.399Z,30.10
2022-08-22T08:52:37.059Z,30.40
2022-08-22T08:55:19.821Z,30.30
2022-08-22T08:58:06.539Z,30.30
2022-08-22T09:00:45.736Z,30.60
2022-08-22T09:03:43.805Z,31.20
2022-08-22T09:06:42.613Z,31.80
2022-08-22T09:09:27.534Z,31.30
2022-08-22T09:12:26.376Z,31.90
2022-08-22T09:15:11.795Z,33.00
2022-08-22T09:17:59.956Z,33.90
2022-08-22T09:20:51.265Z,34.10
2022-08-22T09:24:14.166Z,34.40
2022-08-22T09:27:01.336Z,34.80
2022-08-22T09:29:51.675Z,35.70
2022-08-22T09:32:28.631Z,36.30
2022-08-22T09:35:18.662Z,36.70
2022-08-22T09:38:06.897Z,35.80
2022-08-22T09:40:52.288Z,35.40
2022-08-22T09:43:23.782Z,35.40
2022-08-22T09:46:36.632Z,35.70
2022-08-22T09:49:14.414Z,36.50
2022-08-22T09:52:05.166Z,36.20
2022-08-22T09:54:49.281Z,35.80
2022-08-22T09:57:34.723Z,35.60
2022-08-22T10:00:13.880Z,35.70
2022-08-22T10:03:28.448Z,36.60
2022-08-22T10:06:05.539Z,37.70
2022-08-22T10:08:57.406Z,37.60
2022-08-22T10:11:38.819Z,37.20
2022-08-22T10:14:22.183Z,37.60
2022-08-22T10:17:21.766Z,37.20
2022-08-22T10:20:00.533Z,36.60
2022-08-22T10:22:49.184Z,36.40
2022-08-22T10:25:33.335Z,37.20
2022-08-22T10:28:15.034Z,37.60
2022-08-22T10:31:11.997Z,37.90
2022-08-22T10:33:46.102Z,37.30
2022-08-22T10:36:19.326Z,37.90
2022-08-22T10:38:52.345Z,37.90
2022-08-22T10:41:27.015Z,38.10
2022-08-22T10:44:06.600Z,38.20
2022-08-22T10:46:42.234Z,38.60
2022-08-22T10:49:22.592Z,39.70
2022-08-22T10:52:15.876Z,40.40
2022-08-22T10:54:43.311Z,40.60
2022-08-22T10:57:28.417Z,40.70
2022-08-22T11:00:22.745Z,40.00
2022-08-22T11:03:15.105Z,39.50
2022-08-22T11:05:50.937Z,39.00
2022-08-22T11:08:24.033Z,38.90
2022-08-22T11:10:56.115Z,38.40
2022-08-22T11:13:47.722Z,38.20
2022-08-22T11:16:48.266Z,38.60
2022-08-22T11:19:28.173Z,39.30
2022-08-22T11:22:10.221Z,39.10
2022-08-22T11:25:11.602Z,39.20
2022-08-22T11:28:01.588Z,38.10
2022-08-22T11:30:44.482Z,37.50
2022-08-22T11:33:46.389Z,37.40
2022-08-22T11:36:20.014Z,36.80
2022-08-22T11:39:20.843Z,36.40
2022-08-22T11:42:09.068Z,37.10
2022-08-22T11:44:50.342Z,37.50
2022-08-22T11:47:26.698Z,37.00
2022-08-22T11:50:23.101Z,37.50
2022-08-22T11:53:13.340Z,36.60
2022-08-22T11:55:59.141Z,37.30
2022-08-22T11:58:33.078Z,38.20
2022-08-22T12:01:18.873Z,39.40
2022-08-22T12:03:58.657Z,39.90
2022-08-22T12:06:43.304Z,40.40
2022-08-22T12:09:29.822Z,40.60
2022-08-22T12:12:21.706Z,41.00
2022-08-22T12:15:22.033Z,40.60
2022-08-22T12:18:20.142Z,39.70
2022-08-22T12:21:18.181Z,37.20
2022-08-22T12:24:11.196Z,37.40
2022-08-22T12:27:07.761Z,36.80
2022-08-22T12:29:58.990Z,36.80
2022-08-22T12:32:54.897Z,35.80
2022-08-22T12:35:29.839Z,34.20
2022-08-22T12:38:29.135Z,33.70
2022-08-22T12:41:35.645Z,33.80
2022-08-22T12:44:17.724Z,34.20
2022-08-22T12:47:00.317Z,33.70
2022-08-22T12:49:38.407Z,33.30
2022-08-22T12:52:21.859Z,32.80
2022-08-22T12:55:07.680Z,32.30
2022-08-22T12:57:54.437Z,32.10
2022-08-22T13:00:34.985Z,32.50
2022-08-22T13:03:32.513Z,32.70
2022-08-22T13:06:07.670Z,32.50
2022-08-22T13:08:44.619Z,32.70
2022-08-22T13:11:22.762Z,32.40
2022-08-22T13:13:56.437Z,32.20
2022-08-22T13:16:26.181Z,31.60
2022-08-22T13:19:08.025Z,31.50
2022-08-22T13:21:48.328Z,31.30
2022-08-22T13:24:22.783Z,31.20
2022-08-22T13:27:14.950Z,31.00
2022-08-22T13:29:50.505Z,30.90
2022-08-22T13:32:49.594Z,30.60
2022-08-22T13:35:23.903Z,30.70
2022-08-22T13:37:57.502Z,30.70
2022-08-22T13:40:30.594Z,30.90
2022-08-22T13:43:07.456Z,31.40
2022-08-22T13:45:36.474Z,31.50
2022-08-22T13:48:11.398Z,31.40
2022-08-22T13:51:04.194Z,31.20
2022-08-22T13:54:02.003Z,31.10
2022-08-22T13:56:38.951Z,31.30
2022-08-22T13:59:47.156Z,31.70
2022-08-22T14:02:30.742Z,31.80
2022-08-22T14:05:05.314Z,31.80
2022-08-22T14:07:52.946Z,31.90
2022-08-22T14:10:25.914Z,32.10
2022-08-22T14:12:57.424Z,32.00
2022-08-22T14:15:46.091Z,32.20
2022-08-22T14:24:55.996Z,31.10
2022-08-22T14:27:34.320Z,31.40
2022-08-22T14:30:32.669Z,31.70
2022-08-22T14:33:13.171Z,31.60
2022-08-22T14:35:52.737Z,31.50
2022-08-22T14:38:31.542Z,30.90
2022-08-22T14:41:28.580Z,30.80
2022-08-22T14:44:31.065Z,30.60
2022-08-22T14:47:15.821Z,30.40
2022-08-22T14:49:58.097Z,30.20
2022-08-22T14:52:36.268Z,30.10
2022-08-22T14:55:39.294Z,30.00
2022-08-22T15:01:15.934Z,29.80
2022-08-22T15:04:19.228Z,29.70
2022-08-22T15:10:31.572Z,29.40
2022-08-22T15:13:02.414Z,29.40
2022-08-22T15:15:54.417Z,29.40
2022-08-22T15:18:28.755Z,29.30
2022-08-22T15:21:26.007Z,29.20
2022-08-22T15:23:57.142Z,29.20
2022-08-22T15:26:31.292Z,29.10
2022-08-22T15:29:07.816Z,29.20
2022-08-22T15:31:35.605Z,29.20
2022-08-22T15:34:19.652Z,29.20
2022-08-22T15:37:28.404Z,29.30
2022-08-22T15:40:29.017Z,29.30
2022-08-22T15:42:58.336Z,29.50
2022-08-22T15:45:34.813Z,29.60
2022-08-22T15:48:08.957Z,29.70
2022-08-22T15:50:58.128Z,29.70
2022-08-22T15:53:45.024Z,29.60
2022-08-22T15:56:11.652Z,29.70
2022-08-22T15:58:48.139Z,29.70
2022-08-22T16:01:19.752Z,29.70
2022-08-22T16:04:02.152Z,29.60
2022-08-22T16:06:51.073Z,29.60
2022-08-22T16:09:40.805Z,29.70
2022-08-22T16:12:25.786Z,29.70
2022-08-22T16:14:53.290Z,29.50
2022-08-22T16:17:26.016Z,29.40
2022-08-22T16:20:07.854Z,29.30
2022-08-22T16:22:56.447Z,29.00
2022-08-22T16:25:44.842Z,28.80
2022-08-22T16:28:54.417Z,28.60
2022-08-22T16:31:34.794Z,28.70
2022-08-22T16:34:16.594Z,28.80
2022-08-22T16:37:03.312Z,28.90
2022-08-22T16:39:41.480Z,28.90
2022-08-22T16:42:14.829Z,29.00
2022-08-22T16:44:54.881Z,28.90
2022-08-22T16:47:23.464Z,28.90
2022-08-22T16:49:55.949Z,28.80
2022-08-22T16:52:25.877Z,28.70
2022-08-22T16:55:08.479Z,28.60
2022-08-22T16:58:05.675Z,28.40
2022-08-22T17:00:50.974Z,28.40
2022-08-22T17:03:34.111Z,28.20
2022-08-22T17:06:20.609Z,28.10
2022-08-22T17:08:49.997Z,28.10
2022-08-22T17:11:38.550Z,28.00
2022-08-22T17:14:20.531Z,27.90
2022-08-22T17:16:55.025Z,27.70
2022-08-22T17:19:58.902Z,27.50
2022-08-22T17:22:33.095Z,27.30
2022-08-22T17:25:27.998Z,27.10
2022-08-22T17:28:20.951Z,26.90
2022-08-22T17:31:03.439Z,26.70
2022-08-22T17:34:07.740Z,26.70
2022-08-22T17:36:56.671Z,26.50
2022-08-22T17:39:51.800Z,26.30
2022-08-22T17:42:49.709Z,26.10
2022-08-22T17:45:30.720Z,25.90
2022-08-22T17:48:19.478Z,25.80
2022-08-22T17:51:32.815Z,25.80
2022-08-22T17:54:11.974Z,25.80
2022-08-22T17:57:05.835Z,25.80
2022-08-22T17:59:57.669Z,25.40
2022-08-22T18:02:39.309Z,25.50
2022-08-22T18:08:38.125Z,25.40
2022-08-22T18:11:40.077Z,25.20
2022-08-22T18:14:13.797Z,25.20
2022-08-22T18:16:56.912Z,25.20
2022-08-22T18:19:23.543Z,25.10
2022-08-22T18:22:19.550Z,25.00
2022-08-22T18:25:18.187Z,25.00
2022-08-22T18:27:56.767Z,24.90
2022-08-22T18:30:30.840Z,24.80
2022-08-22T18:33:33.194Z,24.70
2022-08-22T18:36:21.702Z,24.60
2022-08-22T18:39:06.619Z,24.40
2022-08-22T18:41:38.739Z,24.40
2022-08-22T18:44:19.666Z,24.40
2022-08-22T18:46:50.972Z,24.30
2022-08-22T18:49:19.519Z,24.20
2022-08-22T18:52:08.302Z,24.00
2022-08-22T18:54:59.462Z,23.80
2022-08-22T18:58:14.722Z,23.60
2022-08-22T19:01:01.174Z,23.60
2022-08-22T19:03:36.002Z,23.40
2022-08-22T19:06:39.604Z,23.30
2022-08-22T19:09:44.774Z,23.20
2022-08-22T19:12:31.176Z,23.10
2022-08-22T19:15:20.441Z,23.00
2022-08-22T19:17:59.340Z,22.90
2022-08-22T19:20:51.967Z,22.90
2022-08-22T19:23:43.508Z,22.80
2022-08-22T19:26:28.569Z,22.80
2022-08-22T19:29:02.364Z,22.80
2022-08-22T19:31:42.826Z,22.60
2022-08-22T19:34:19.802Z,22.60
2022-08-22T19:37:06.698Z,22.50
2022-08-22T19:39:42.289Z,22.50
2022-08-22T19:42:21.273Z,22.50
2022-08-22T19:44:53.771Z,22.50
2022-08-22T19:47:29.102Z,22.40
2022-08-22T19:49:58.590Z,22.50
2022-08-22T19:52:57.872Z,22.40
2022-08-22T19:55:33.103Z,22.30
2022-08-22T19:58:31.041Z,22.10
2022-08-22T20:01:10.112Z,22.20
2022-08-22T20:03:54.744Z,22.30
2022-08-22T20:06:45.744Z,22.30
2022-08-22T20:09:48.516Z,22.30
2022-08-22T20:12:22.621Z,22.20
2022-08-22T20:14:49.989Z,22.30
2022-08-22T20:17:25.571Z,22.10
2022-08-22T20:20:17.187Z,22.00
2022-08-22T20:23:22.557Z,22.00
2022-08-22T20:25:52.877Z,21.80
2022-08-22T20:28:47.142Z,21.90
2022-08-22T20:31:24.198Z,21.90
2022-08-22T20:34:19.636Z,21.90
2022-08-22T20:36:55.963Z,21.90
2022-08-22T20:39:51.378Z,21.80
2022-08-22T20:42:27.317Z,21.80
2022-08-22T20:44:56.091Z,21.80
2022-08-22T20:47:26.442Z,21.80
2022-08-22T20:50:03.159Z,21.60
2022-08-22T20:52:32.843Z,21.50
2022-08-22T20:55:08.260Z,21.40
2022-08-22T20:57:48.892Z,21.40
2022-08-22T21:00:21.868Z,21.30
2022-08-22T21:03:07.845Z,21.30
2022-08-22T21:05:44.549Z,21.20
2022-08-22T21:08:13.546Z,21.20
2022-08-22T21:11:00.225Z,21.20
2022-08-22T21:13:33.961Z,21.20
2022-08-22T21:16:20.011Z,21.10
2022-08-22T21:18:49.451Z,21.00
2022-08-22T21:21:31.084Z,20.90
2022-08-22T21:24:04.750Z,20.90
2022-08-22T21:26:46.199Z,20.70
2022-08-22T21:29:12.959Z,20.60
2022-08-22T21:31:49.962Z,20.60
2022-08-22T21:34:29.589Z,20.50
2022-08-22T21:37:12.106Z,20.50
2022-08-22T21:39:49.810Z,20.50
2022-08-22T21:42:30.989Z,20.40
2022-08-22T21:45:02.686Z,20.40
2022-08-22T21:47:33.926Z,20.30
2022-08-22T21:50:06.158Z,20.30
2022-08-22T21:52:36.315Z,20.20
2022-08-22T21:55:15.739Z,20.20
2022-08-22T21:57:42.893Z,20.10
2022-08-22T22:00:48.846Z,20.10
2022-08-22T22:03:21.850Z,19.90
2022-08-22T22:05:50.665Z,19.90
2022-08-22T22:08:17.693Z,19.90
2022-08-22T22:10:46.958Z,19.70
2022-08-22T22:13:14.038Z,19.70
2022-08-22T22:15:45.032Z,19.60
2022-08-22T22:18:14.334Z,19.60
2022-08-22T22:20:42.178Z,19.50
2022-08-22T22:23:09.432Z,19.50
2022-08-22T22:25:39.541Z,19.50
2022-08-22T22:28:14.167Z,19.40
2022-08-22T22:30:42.470Z,19.30
2022-08-22T22:33:10.001Z,19.20
2022-08-22T22:35:39.181Z,19.10
2022-08-22T22:38:06.555Z,19.20
2022-08-22T22:40:33.381Z,19.20
2022-08-22T22:43:00.109Z,19.10
2022-08-22T22:45:26.808Z,19.00
2022-08-22T22:47:53.546Z,19.00
2022-08-22T22:50:20.319Z,18.90
2022-08-22T22:52:46.938Z,18.80
2022-08-22T22:55:24.753Z,18.80
2022-08-22T22:57:59.136Z,18.70
2022-08-22T23:00:29.173Z,18.70
2022-08-22T23:02:58.963Z,18.60
2022-08-22T23:05:25.655Z,18.50
2022-08-22T23:07:52.320Z,18.60
2022-08-22T23:10:22.037Z,18.50
2022-08-22T23:12:48.982Z,18.50
2022-08-22T23:15:16.673Z,18.50
2022-08-22T23:17:43.700Z,18.60
2022-08-22T23:20:10.863Z,18.60
2022-08-22T23:22:37.765Z,18.50
2022-08-22T23:25:05.224Z,18.40
2022-08-22T23:27:32.048Z,18.20
2022-08-22T23:29:58.659Z,18.30
2022-08-22T23:32:25.379Z,18.30
2022-08-22T23:34:53.695Z,18.30
2022-08-22T23:37:22.103Z,18.30
2022-08-22T23:39:49.433Z,18.40
2022-08-22T23:42:18.002Z,18.30
2022-08-22T23:44:45.710Z,18.30
2022-08-22T23:47:13.963Z,18.30
2022-08-22T23:49:41.479Z,18.30
2022-08-22T23:52:09.551Z,18.20
2022-08-22T23:54:36.412Z,18.20
2022-08-22T23:57:12.025Z,18.20
2022-08-22T23:59:44.609Z,18.10
